Time;durP1;ratioP1;P1;durP2;ratioP2;P2;SDS_P1;SDS_P2;PMS_P1;PMS_P2;Temp;Humidity;BMP_temperature;BMP_pressure;BME280_temperature;BME280_humidity;BME280_pressure;Samples;Min_cycle;Max_cycle;Signal;HPM_P1;HPM_P2
2020/12/26 00:00:13;;;;;;;0.00;0.00;;;6.80;94.60;;;;;;5049761;28;20043;-57
2020/12/26 00:02:38;;;;;;;0.00;0.00;;;6.70;95.00;;;;;;5069680;28;20089;-55
2020/12/26 00:05:04;;;;;;;0.35;0.00;;;6.60;95.30;;;;;;5070172;28;20033;-56
2020/12/26 00:07:30;;;;;;;0.10;0.00;;;6.60;95.00;;;;;;5054123;28;20036;-56
2020/12/26 00:09:56;;;;;;;0.03;0.00;;;6.50;95.00;;;;;;5050607;28;20033;-56
2020/12/26 00:12:22;;;;;;;0.13;0.00;;;6.60;94.80;;;;;;5056157;28;20079;-58
2020/12/26 00:14:47;;;;;;;0.00;0.00;;;6.60;89.90;;;;;;5066423;28;20047;-55
2020/12/26 00:17:13;;;;;;;0.00;0.00;;;6.80;91.10;;;;;;5064823;28;20028;-54
2020/12/26 00:19:39;;;;;;;0.00;0.00;;;6.90;92.00;;;;;;5070016;28;20162;-58
2020/12/26 00:22:05;;;;;;;0.00;0.00;;;6.80;93.50;;;;;;5057095;28;20024;-55
2020/12/26 00:24:30;;;;;;;0.35;0.00;;;6.70;95.30;;;;;;5049947;28;20029;-54
2020/12/26 00:26:57;;;;;;;0.08;0.00;;;6.70;89.20;;;;;;5049730;28;20311;-51
2020/12/26 00:29:23;;;;;;;0.00;0.00;;;6.90;92.20;;;;;;5048254;28;20041;-55
2020/12/26 00:31:48;;;;;;;0.00;0.00;;;6.80;92.00;;;;;;5049165;28;20451;-55
2020/12/26 00:34:14;;;;;;;0.10;0.00;;;6.90;86.70;;;;;;5064856;28;20476;-50
2020/12/26 00:36:40;;;;;;;0.00;0.00;;;7.10;84.60;;;;;;5069936;28;20468;-54
2020/12/26 00:39:06;;;;;;;0.00;0.00;;;7.30;79.60;;;;;;5069603;28;20032;-55
2020/12/26 00:41:32;;;;;;;0.00;0.00;;;7.20;85.80;;;;;;5069385;28;20060;-53
2020/12/26 00:43:57;;;;;;;0.10;0.00;;;7.10;90.30;;;;;;5068563;28;20032;-53
2020/12/26 00:46:23;;;;;;;2.58;0.00;;;6.90;91.20;;;;;;5069351;28;20147;-52
2020/12/26 00:48:50;;;;;;;0.00;0.00;;;6.70;92.90;;;;;;5069753;28;20468;-55
2020/12/26 00:51:15;;;;;;;0.20;0.00;;;6.60;93.70;;;;;;5069507;28;20423;-52
2020/12/26 00:53:42;;;;;;;0.20;0.00;;;6.40;96.80;;;;;;5069327;28;20117;-54
2020/12/26 00:56:07;;;;;;;0.00;0.00;;;6.30;96.10;;;;;;5069168;28;20095;-55
2020/12/26 00:58:33;;;;;;;0.10;0.00;;;6.60;90.10;;;;;;5069538;28;20401;-55
2020/12/26 01:00:59;;;;;;;0.00;0.00;;;7.00;86.40;;;;;;5069489;28;20078;-54
2020/12/26 01:03:27;;;;;;;0.00;0.00;;;6.90;90.40;;;;;;5069091;28;20039;-52
2020/12/26 01:05:53;;;;;;;0.10;0.00;;;6.90;82.70;;;;;;5069236;28;20670;-52
2020/12/26 01:08:19;;;;;;;0.03;0.00;;;7.10;80.50;;;;;;5069435;28;20115;-53
2020/12/26 01:10:44;;;;;;;0.00;0.00;;;7.00;85.30;;;;;;5053879;28;20075;-55
2020/12/26 01:13:10;;;;;;;0.00;0.00;;;7.00;84.20;;;;;;5049320;28;20086;-52
2020/12/26 01:15:36;;;;;;;0.00;0.00;;;7.00;80.80;;;;;;5049205;28;20397;-55
2020/12/26 01:18:03;;;;;;;0.10;0.00;;;7.00;80.60;;;;;;5049289;28;20032;-55
2020/12/26 01:20:29;;;;;;;0.10;0.00;;;7.00;84.30;;;;;;5048969;28;20121;-53
2020/12/26 01:22:54;;;;;;;0.00;0.00;;;6.90;81.20;;;;;;5049467;28;20139;-54
2020/12/26 01:25:21;;;;;;;0.22;0.00;;;6.90;83.80;;;;;;5049007;28;20052;-55
2020/12/26 01:27:46;;;;;;;0.20;0.00;;;6.80;82.80;;;;;;5048700;28;20350;-55
2020/12/26 01:30:12;;;;;;;0.00;0.00;;;6.80;83.70;;;;;;5048954;28;20074;-52
2020/12/26 01:32:38;;;;;;;0.00;0.00;;;6.80;83.80;;;;;;5048794;28;20037;-56
2020/12/26 01:35:04;;;;;;;0.00;0.00;;;6.80;82.50;;;;;;5049230;28;20043;-52
2020/12/26 01:37:30;;;;;;;0.00;0.00;;;6.80;84.30;;;;;;5048789;28;20024;-54
2020/12/26 01:39:56;;;;;;;0.00;0.00;;;6.70;83.70;;;;;;5048894;28;20033;-54
2020/12/26 01:42:22;;;;;;;0.00;0.00;;;6.60;83.70;;;;;;5048556;28;20029;-55
2020/12/26 01:44:48;;;;;;;0.00;0.00;;;6.70;85.80;;;;;;5048848;28;20044;-53
2020/12/26 01:47:15;;;;;;;0.00;0.00;;;6.80;83.60;;;;;;5048309;28;20065;-56
2020/12/26 01:49:42;;;;;;;0.10;0.00;;;6.80;82.10;;;;;;5048523;28;20032;-57
2020/12/26 01:52:10;;;;;;;0.00;0.00;;;6.70;81.90;;;;;;5048478;28;20072;-52
2020/12/26 01:54:36;;;;;;;0.00;0.00;;;6.80;82.00;;;;;;5050594;28;20095;-52
2020/12/26 01:57:04;;;;;;;0.75;0.00;;;6.70;85.90;;;;;;5055335;28;20032;-55
2020/12/26 01:59:30;;;;;;;0.10;0.00;;;6.70;83.70;;;;;;5055051;28;20029;-57
2020/12/26 02:01:59;;;;;;;0.10;0.00;;;6.70;81.80;;;;;;5055169;28;20476;-55
2020/12/26 02:04:25;;;;;;;0.10;0.00;;;6.60;86.30;;;;;;5055021;28;20052;-53
2020/12/26 02:07:03;;;;;;;0.10;0.00;;;6.50;86.00;;;;;;5054987;28;20063;-55
2020/12/26 02:09:29;;;;;;;0.00;0.00;;;6.50;84.10;;;;;;5059838;28;20028;-52
2020/12/26 02:11:55;;;;;;;0.05;0.00;;;6.60;81.90;;;;;;5075188;28;20041;-52
2020/12/26 02:14:22;;;;;;;0.20;0.00;;;6.70;81.60;;;;;;5075111;28;20098;-56
2020/12/26 02:16:52;;;;;;;0.00;0.00;;;6.70;82.10;;;;;;5073706;28;20098;-55
2020/12/26 02:19:23;;;;;;;0.10;0.00;;;6.60;82.40;;;;;;5075001;28;20546;-55
2020/12/26 02:21:49;;;;;;;0.00;0.00;;;6.50;85.70;;;;;;5074935;28;20032;-54
2020/12/26 02:24:15;;;;;;;0.00;0.00;;;6.40;87.40;;;;;;5075028;28;20400;-53
2020/12/26 02:26:41;;;;;;;0.10;0.00;;;6.30;84.80;;;;;;5075063;28;20483;-54
2020/12/26 02:29:07;;;;;;;0.10;0.00;;;6.60;84.10;;;;;;5075194;28;20036;-51
2020/12/26 02:31:34;;;;;;;0.20;0.00;;;6.60;82.40;;;;;;5066597;28;20315;-53
2020/12/26 02:34:00;;;;;;;0.45;0.00;;;6.50;83.10;;;;;;5068941;28;20074;-54
2020/12/26 02:36:26;;;;;;;0.05;0.00;;;6.50;84.70;;;;;;5074634;28;20791;-53
2020/12/26 02:38:52;;;;;;;0.10;0.00;;;6.40;81.10;;;;;;5074722;28;20468;-54
2020/12/26 02:41:17;;;;;;;0.10;0.00;;;6.40;83.00;;;;;;5074805;28;20040;-52
2020/12/26 02:43:43;;;;;;;0.05;0.00;;;6.50;81.90;;;;;;5074791;28;20115;-57
2020/12/26 02:46:09;;;;;;;0.17;0.00;;;6.50;83.70;;;;;;5074481;28;20045;-54
2020/12/26 02:48:35;;;;;;;0.22;0.00;;;6.50;84.00;;;;;;5074748;28;20043;-56
2020/12/26 02:51:00;;;;;;;0.00;0.00;;;6.30;87.00;;;;;;5074923;28;20043;-55
2020/12/26 02:53:26;;;;;;;0.00;0.00;;;6.30;86.30;;;;;;5075118;28;20040;-56
2020/12/26 02:55:52;;;;;;;0.10;0.00;;;6.30;86.50;;;;;;5074832;28;20452;-57
2020/12/26 02:58:19;;;;;;;0.10;0.00;;;6.30;83.30;;;;;;5074503;28;20075;-55
2020/12/26 03:00:45;;;;;;;0.10;0.00;;;6.30;86.30;;;;;;5074969;28;20420;-56
2020/12/26 03:05:46;;;;;;;0.10;0.00;;;6.10;90.20;;;;;;4995239;22;20143;-54
2020/12/26 03:08:12;;;;;;;0.10;0.00;;;6.00;91.10;;;;;;5051015;28;20480;-55
2020/12/26 03:10:37;;;;;;;0.10;0.00;;;6.00;86.20;;;;;;5051324;28;20033;-55
2020/12/26 03:13:03;;;;;;;0.10;0.00;;;6.30;87.30;;;;;;5051587;28;20039;-58
2020/12/26 03:15:29;;;;;;;0.20;0.00;;;6.20;89.40;;;;;;5051629;28;20032;-58
2020/12/26 03:17:55;;;;;;;0.05;0.00;;;6.00;91.30;;;;;;5051402;28;20447;-56
2020/12/26 03:20:20;;;;;;;0.20;0.00;;;6.00;87.90;;;;;;5051129;28;20033;-56
2020/12/26 03:22:46;;;;;;;0.20;0.00;;;6.10;87.00;;;;;;5051087;28;20040;-57
2020/12/26 03:25:12;;;;;;;0.10;0.10;;;6.20;85.90;;;;;;5050960;28;20036;-53
2020/12/26 03:27:38;;;;;;;0.20;0.03;;;6.40;83.10;;;;;;5051254;28;20029;-55
2020/12/26 03:30:04;;;;;;;0.40;0.00;;;6.40;83.00;;;;;;5051275;28;20388;-51
2020/12/26 03:32:30;;;;;;;0.20;0.00;;;6.40;84.20;;;;;;5051069;28;20120;-56
2020/12/26 03:34:56;;;;;;;0.20;0.00;;;6.30;84.50;;;;;;5033078;28;20108;-53
2020/12/26 03:37:22;;;;;;;0.10;0.00;;;6.20;88.10;;;;;;5051261;28;20037;-56
2020/12/26 03:39:47;;;;;;;0.00;0.00;;;6.10;86.10;;;;;;5050718;28;20498;-57
2020/12/26 03:42:13;;;;;;;0.00;0.00;;;6.40;81.00;;;;;;5051081;28;20029;-56
2020/12/26 03:44:40;;;;;;;0.10;0.00;;;6.50;83.20;;;;;;5050883;28;20578;-50
2020/12/26 03:47:08;;;;;;;0.17;0.00;;;6.40;82.20;;;;;;5050836;28;20035;-55
2020/12/26 03:49:34;;;;;;;0.95;0.20;;;6.40;83.10;;;;;;5050735;28;20428;-56
2020/12/26 03:52:00;;;;;;;0.15;0.08;;;6.30;82.40;;;;;;5050584;28;20461;-59
2020/12/26 03:54:26;;;;;;;0.40;0.00;;;6.30;81.70;;;;;;5050709;28;20167;-54
2020/12/26 03:56:52;;;;;;;0.20;0.00;;;6.40;81.90;;;;;;5050599;28;20035;-54
2020/12/26 03:59:17;;;;;;;0.98;0.10;;;6.30;84.00;;;;;;5050535;28;20212;-54
2020/12/26 04:01:43;;;;;;;0.10;0.00;;;6.20;85.30;;;;;;5050597;28;20029;-56
2020/12/26 04:04:10;;;;;;;0.00;0.00;;;6.30;84.20;;;;;;5050404;28;20025;-55
2020/12/26 04:06:36;;;;;;;0.40;0.00;;;6.20;83.60;;;;;;5050091;28;20132;-55
2020/12/26 04:09:02;;;;;;;0.10;0.00;;;6.20;81.80;;;;;;5050171;28;20163;-56
2020/12/26 04:11:28;;;;;;;0.10;0.00;;;6.40;81.20;;;;;;5050202;28;20040;-51
2020/12/26 04:13:54;;;;;;;0.13;0.00;;;6.30;85.50;;;;;;5050122;28;20037;-57
2020/12/26 04:16:20;;;;;;;1.50;0.00;;;6.20;81.60;;;;;;5050126;28;20029;-52
2020/12/26 04:18:45;;;;;;;0.10;0.05;;;6.30;80.50;;;;;;5049900;28;20402;-53
2020/12/26 04:21:11;;;;;;;0.10;0.00;;;6.30;81.60;;;;;;5049939;28;20378;-54
2020/12/26 04:23:37;;;;;;;0.10;0.00;;;6.20;81.30;;;;;;5049804;28;20029;-56
2020/12/26 04:26:03;;;;;;;0.08;0.00;;;6.40;78.70;;;;;;5050265;28;20043;-54
2020/12/26 04:28:29;;;;;;;0.20;0.10;;;6.40;83.10;;;;;;5049921;28;20117;-55
2020/12/26 04:30:55;;;;;;;0.10;0.00;;;6.30;80.20;;;;;;5049589;28;20116;-54
2020/12/26 04:33:20;;;;;;;0.00;0.00;;;6.30;80.90;;;;;;5049999;28;20029;-57
2020/12/26 04:35:46;;;;;;;0.20;0.00;;;6.40;79.20;;;;;;5049577;28;20040;-55
2020/12/26 04:38:12;;;;;;;0.10;0.00;;;6.40;82.10;;;;;;5049519;28;20150;-56
2020/12/26 04:40:38;;;;;;;0.00;0.00;;;6.30;80.70;;;;;;5049681;28;20504;-53
2020/12/26 04:43:06;;;;;;;0.20;0.00;;;6.30;83.00;;;;;;5049421;28;20029;-54
2020/12/26 04:45:32;;;;;;;0.20;0.00;;;6.30;82.40;;;;;;5049430;28;20557;-55
2020/12/26 04:48:03;;;;;;;1.20;0.00;;;6.30;81.80;;;;;;5049373;28;20378;-56
2020/12/26 04:50:31;;;;;;;0.10;0.00;;;6.30;82.50;;;;;;5049187;28;20114;-59
2020/12/26 04:53:03;;;;;;;0.10;0.00;;;6.20;81.20;;;;;;5049537;28;20072;-55
2020/12/26 04:55:36;;;;;;;0.73;0.10;;;6.10;84.10;;;;;;5049531;28;20044;-58
2020/12/26 04:58:05;;;;;;;0.10;0.00;;;6.10;83.50;;;;;;5049275;28;20116;-55
2020/12/26 05:00:33;;;;;;;0.40;0.00;;;6.10;81.00;;;;;;5049355;28;20036;-56
2020/12/26 05:03:06;;;;;;;0.20;0.00;;;6.20;84.30;;;;;;5049004;28;20407;-51
2020/12/26 05:05:36;;;;;;;0.20;0.00;;;6.10;83.10;;;;;;5049198;28;20064;-54
2020/12/26 05:08:10;;;;;;;0.00;0.00;;;6.10;85.20;;;;;;5049103;28;20083;-58
2020/12/26 05:10:37;;;;;;;0.00;0.00;;;6.10;84.70;;;;;;5049138;28;20029;-54
2020/12/26 05:13:05;;;;;;;0.20;0.00;;;6.10;81.90;;;;;;5049186;28;20040;-55
2020/12/26 05:15:31;;;;;;;0.10;0.00;;;6.30;78.80;;;;;;5048657;28;20029;-54
2020/12/26 05:17:57;;;;;;;0.15;0.00;;;6.40;78.30;;;;;;5049178;28;20033;-58
2020/12/26 05:20:24;;;;;;;0.30;0.10;;;6.40;80.00;;;;;;5048742;28;20029;-58
2020/12/26 05:23:11;;;;;;;0.10;0.00;;;6.40;79.10;;;;;;5048869;28;20021;-55
2020/12/26 05:25:40;;;;;;;0.75;0.00;;;6.30;81.40;;;;;;5048677;28;20118;-53
2020/12/26 05:28:17;;;;;;;0.20;0.00;;;6.30;80.30;;;;;;5048660;28;20029;-55
2020/12/26 05:30:45;;;;;;;0.20;0.00;;;6.40;78.60;;;;;;5048458;28;20036;-55
2020/12/26 05:33:12;;;;;;;0.63;0.10;;;6.30;80.50;;;;;;5048640;28;20037;-50
2020/12/26 05:35:40;;;;;;;0.20;0.00;;;6.30;81.40;;;;;;5048737;28;20068;-56
2020/12/26 05:38:18;;;;;;;0.10;0.00;;;6.40;79.70;;;;;;5048700;28;20511;-54
2020/12/26 05:40:56;;;;;;;0.30;0.10;;;6.40;78.80;;;;;;5048568;28;20031;-56
2020/12/26 05:43:23;;;;;;;0.10;0.00;;;6.40;79.90;;;;;;5048616;28;20032;-55
2020/12/26 05:45:50;;;;;;;0.80;0.00;;;6.30;82.60;;;;;;5048686;28;20064;-48
2020/12/26 05:48:21;;;;;;;0.20;0.20;;;6.20;85.70;;;;;;5047065;28;20059;-53
2020/12/26 05:50:47;;;;;;;0.10;0.00;;;6.10;84.70;;;;;;5048419;28;20159;-56
2020/12/26 05:53:16;;;;;;;0.30;0.10;;;6.10;82.50;;;;;;5048609;28;20051;-55
2020/12/26 05:55:46;;;;;;;0.00;0.00;;;6.10;86.40;;;;;;5048434;28;20036;-55
2020/12/26 05:58:24;;;;;;;0.68;0.00;;;6.00;83.90;;;;;;5048562;28;20099;-55
2020/12/26 06:00:51;;;;;;;0.10;0.00;;;6.20;82.40;;;;;;5048540;28;20057;-51
2020/12/26 06:03:31;;;;;;;0.10;0.00;;;6.40;77.80;;;;;;5048885;28;20325;-51
2020/12/26 06:05:57;;;;;;;0.20;0.00;;;6.50;77.10;;;;;;5048116;28;20582;-52
2020/12/26 06:08:24;;;;;;;0.10;0.00;;;6.50;82.50;;;;;;5048496;28;20036;-53
2020/12/26 06:10:54;;;;;;;0.20;0.00;;;6.50;78.10;;;;;;5048498;28;20044;-53
2020/12/26 06:13:22;;;;;;;0.20;0.00;;;6.40;77.10;;;;;;5048217;28;20028;-52
2020/12/26 06:15:56;;;;;;;0.35;0.00;;;6.50;80.50;;;;;;5048101;28;20044;-54
2020/12/26 06:18:23;;;;;;;0.38;0.10;;;6.40;80.20;;;;;;5048491;28;20284;-57
2020/12/26 06:20:52;;;;;;;0.20;0.10;;;6.30;81.60;;;;;;5048069;28;20083;-53
2020/12/26 06:23:22;;;;;;;0.20;0.00;;;6.40;82.50;;;;;;5048194;28;20374;-53
2020/12/26 06:25:50;;;;;;;0.30;0.10;;;6.30;80.10;;;;;;5048137;28;20579;-53
2020/12/26 06:28:33;;;;;;;0.55;0.10;;;6.30;81.90;;;;;;5048045;28;20562;-56
2020/12/26 06:31:06;;;;;;;0.82;0.10;;;6.30;79.90;;;;;;5048360;28;20127;-57
2020/12/26 06:33:42;;;;;;;0.20;0.00;;;6.30;78.30;;;;;;5048282;28;20037;-55
2020/12/26 06:36:11;;;;;;;0.20;0.00;;;6.50;75.30;;;;;;5046196;28;20562;-54
2020/12/26 06:38:38;;;;;;;0.10;0.00;;;6.60;78.60;;;;;;5047727;28;20025;-54
2020/12/26 06:41:14;;;;;;;0.55;0.10;;;6.60;76.50;;;;;;5048020;28;20025;-52
2020/12/26 06:43:40;;;;;;;0.20;0.08;;;6.60;75.70;;;;;;5031720;28;20030;-53
2020/12/26 06:46:32;;;;;;;0.60;0.08;;;6.60;76.50;;;;;;5032002;28;20215;-55
2020/12/26 06:48:58;;;;;;;0.30;0.03;;;6.50;77.20;;;;;;5031698;28;20041;-55
2020/12/26 06:51:34;;;;;;;0.30;0.10;;;6.40;77.10;;;;;;5031422;28;20041;-57
2020/12/26 06:54:07;;;;;;;0.65;0.13;;;6.50;76.00;;;;;;5031972;28;20443;-54
2020/12/26 06:56:36;;;;;;;0.20;0.10;;;6.60;75.90;;;;;;5031603;28;20037;-55
2020/12/26 06:59:09;;;;;;;0.50;0.00;;;6.50;79.30;;;;;;5031485;28;20033;-50
2020/12/26 07:01:40;;;;;;;0.25;0.05;;;6.50;76.50;;;;;;5031551;28;20108;-55
2020/12/26 07:04:20;;;;;;;0.20;0.05;;;6.50;76.80;;;;;;5031667;28;20136;-54
2020/12/26 07:06:49;;;;;;;0.17;0.03;;;6.40;79.40;;;;;;5031152;28;20132;-54
2020/12/26 07:09:18;;;;;;;0.30;0.10;;;6.30;80.70;;;;;;5031308;28;20501;-54
2020/12/26 07:11:52;;;;;;;1.30;0.10;;;6.30;82.30;;;;;;5031070;28;20033;-59
2020/12/26 07:14:37;;;;;;;0.47;0.00;;;6.20;82.90;;;;;;5034520;28;20430;-55
2020/12/26 07:17:24;;;;;;;0.17;0.00;;;6.30;78.00;;;;;;5050932;28;20094;-52
2020/12/26 07:19:54;;;;;;;0.50;0.00;;;6.50;75.60;;;;;;5050907;28;20041;-55
2020/12/26 07:22:24;;;;;;;0.32;0.10;;;6.50;75.90;;;;;;5051495;28;20024;-52
2020/12/26 07:24:54;;;;;;;0.63;0.10;;;6.60;78.60;;;;;;5051005;28;20037;-53
2020/12/26 07:27:29;;;;;;;0.20;0.10;;;6.40;83.20;;;;;;5050221;28;20115;-54
2020/12/26 07:30:08;;;;;;;0.20;0.08;;;6.30;78.10;;;;;;5031053;28;20041;-56
2020/12/26 07:32:48;;;;;;;0.38;0.10;;;6.40;79.70;;;;;;5047862;28;20086;-55
2020/12/26 07:35:20;;;;;;;0.20;0.10;;;6.40;77.50;;;;;;5050630;28;20060;-55
2020/12/26 07:37:55;;;;;;;1.27;0.13;;;6.40;79.50;;;;;;5031858;28;20044;-56
2020/12/26 07:40:23;;;;;;;0.50;0.10;;;6.40;78.20;;;;;;5030830;28;20068;-54
2020/12/26 07:42:49;;;;;;;0.40;0.13;;;6.30;80.70;;;;;;5047620;28;20029;-55
2020/12/26 07:45:17;;;;;;;0.30;0.10;;;6.30;81.00;;;;;;5030742;28;20038;-56
2020/12/26 07:47:45;;;;;;;0.30;0.15;;;6.30;80.40;;;;;;5046760;28;20373;-57
2020/12/26 07:50:13;;;;;;;0.30;0.10;;;6.40;79.30;;;;;;5051037;28;20120;-51
2020/12/26 07:52:44;;;;;;;0.40;0.20;;;6.40;78.70;;;;;;5033741;28;20444;-54
2020/12/26 07:55:10;;;;;;;0.60;0.20;;;6.40;76.40;;;;;;5042365;28;20041;-53
2020/12/26 07:57:35;;;;;;;0.73;0.20;;;6.30;79.10;;;;;;5050356;28;20033;-54
2020/12/26 08:00:01;;;;;;;0.45;0.13;;;6.20;81.60;;;;;;5039986;28;20371;-56
2020/12/26 08:02:27;;;;;;;2.60;0.10;;;6.20;80.90;;;;;;5030354;28;20128;-55
2020/12/26 08:04:53;;;;;;;0.17;0.10;;;6.20;80.00;;;;;;5048554;28;20155;-57
2020/12/26 08:07:19;;;;;;;0.28;0.10;;;6.20;79.60;;;;;;5050319;28;20025;-52
2020/12/26 08:09:49;;;;;;;1.27;0.20;;;6.30;78.30;;;;;;5048201;28;20036;-54
2020/12/26 08:12:14;;;;;;;1.77;0.13;;;6.30;78.80;;;;;;5047965;28;20039;-54
2020/12/26 08:14:40;;;;;;;0.63;0.10;;;6.30;80.80;;;;;;5049415;28;20029;-54
2020/12/26 08:17:06;;;;;;;1.42;0.25;;;6.30;82.40;;;;;;5049783;28;20052;-54
2020/12/26 08:19:34;;;;;;;0.77;0.10;;;6.30;80.20;;;;;;5029768;28;20037;-58
2020/12/26 08:22:00;;;;;;;0.32;0.10;;;6.30;80.80;;;;;;5042696;28;20040;-54
2020/12/26 08:24:26;;;;;;;0.50;0.20;;;6.30;80.10;;;;;;5047736;28;20575;-55
2020/12/26 08:26:56;;;;;;;0.50;0.20;;;6.30;80.50;;;;;;5049739;28;20509;-56
2020/12/26 08:29:32;;;;;;;1.13;0.25;;;6.30;78.90;;;;;;5043520;28;20045;-55
2020/12/26 08:32:09;;;;;;;1.33;0.40;;;6.30;80.90;;;;;;5029710;28;20038;-51
2020/12/26 08:34:52;;;;;;;1.05;0.40;;;6.30;79.50;;;;;;5035947;28;20049;-53
2020/12/26 08:37:24;;;;;;;2.78;0.50;;;6.30;82.70;;;;;;5049504;28;20036;-55
2020/12/26 08:39:57;;;;;;;2.38;0.50;;;6.30;78.40;;;;;;5040113;28;20063;-53
2020/12/26 08:42:25;;;;;;;1.90;0.40;;;6.40;83.80;;;;;;5029448;28;20116;-52
2020/12/26 08:44:51;;;;;;;0.95;0.30;;;6.40;80.10;;;;;;5037881;28;20120;-51
2020/12/26 08:47:30;;;;;;;0.88;0.30;;;6.40;81.40;;;;;;5048437;28;20155;-56
2020/12/26 08:49:57;;;;;;;0.30;0.10;;;6.40;80.70;;;;;;5039953;28;20037;-52
2020/12/26 08:52:27;;;;;;;0.85;0.20;;;6.40;82.50;;;;;;5029199;28;20485;-54
2020/12/26 08:55:07;;;;;;;0.52;0.13;;;6.40;77.10;;;;;;5030045;28;20493;-51
2020/12/26 08:57:33;;;;;;;0.90;0.30;;;6.40;74.50;;;;;;5029129;28;20036;-55
2020/12/26 09:00:22;;;;;;;0.30;0.10;;;6.40;76.40;;;;;;5048572;28;20044;-56
2020/12/26 09:02:52;;;;;;;0.30;0.10;;;6.40;76.90;;;;;;5047532;28;20037;-55
2020/12/26 09:05:20;;;;;;;3.30;0.40;;;6.40;80.40;;;;;;5028344;28;20056;-51
2020/12/26 09:07:46;;;;;;;0.40;0.15;;;6.30;74.80;;;;;;5029142;28;20037;-57
2020/12/26 09:10:12;;;;;;;1.45;0.20;;;6.40;72.80;;;;;;5047966;28;20511;-52
2020/12/26 09:12:38;;;;;;;0.70;0.20;;;6.40;75.10;;;;;;5047880;28;20048;-51
2020/12/26 09:15:04;;;;;;;0.63;0.20;;;6.40;72.80;;;;;;5048683;28;20033;-53
2020/12/26 09:17:29;;;;;;;2.47;0.40;;;6.30;72.20;;;;;;5038996;28;20052;-55
2020/12/26 09:19:58;;;;;;;2.10;0.45;;;6.30;73.60;;;;;;5063496;28;20471;-53
2020/12/26 09:22:28;;;;;;;1.45;0.40;;;6.40;73.30;;;;;;5052588;28;20032;-57
2020/12/26 09:24:53;;;;;;;1.50;0.32;;;6.40;72.60;;;;;;5040458;28;20037;-54
2020/12/26 09:27:20;;;;;;;0.60;0.25;;;6.40;74.30;;;;;;5036896;28;20087;-54
2020/12/26 09:29:51;;;;;;;0.50;0.10;;;6.40;71.50;;;;;;5068600;28;20056;-57
2020/12/26 09:32:17;;;;;;;0.80;0.20;;;6.30;72.90;;;;;;5058751;28;20211;-57
2020/12/26 09:34:43;;;;;;;0.73;0.20;;;6.30;72.70;;;;;;5041417;28;20068;-55
2020/12/26 09:37:10;;;;;;;0.40;0.10;;;6.30;73.00;;;;;;5042615;28;20612;-50
2020/12/26 09:39:37;;;;;;;1.63;0.50;;;6.30;75.00;;;;;;5028685;28;20092;-56
2020/12/26 09:42:04;;;;;;;0.93;0.25;;;6.30;77.00;;;;;;5032443;28;20037;-52
2020/12/26 09:44:30;;;;;;;1.52;0.10;;;6.30;77.60;;;;;;5049565;28;20377;-54
2020/12/26 09:46:57;;;;;;;0.75;0.20;;;6.40;69.90;;;;;;5048228;28;20040;-57
2020/12/26 09:49:23;;;;;;;0.52;0.20;;;6.40;68.90;;;;;;5042984;28;20032;-54
2020/12/26 09:51:49;;;;;;;0.68;0.10;;;6.40;68.70;;;;;;5030548;28;20059;-52
2020/12/26 09:54:15;;;;;;;1.15;0.10;;;6.40;70.00;;;;;;5048563;28;20051;-53
2020/12/26 09:56:40;;;;;;;0.63;0.20;;;6.40;70.20;;;;;;5048901;28;20167;-56
2020/12/26 09:59:06;;;;;;;0.50;0.20;;;6.30;70.50;;;;;;5047439;28;20118;-53
2020/12/26 10:01:34;;;;;;;0.43;0.20;;;6.30;72.10;;;;;;5037418;28;20045;-53
2020/12/26 10:04:00;;;;;;;0.43;0.20;;;6.30;70.40;;;;;;5044431;28;20191;-52
2020/12/26 10:06:26;;;;;;;1.92;0.45;;;6.30;70.90;;;;;;5036651;28;20056;-64
2020/12/26 10:08:52;;;;;;;0.40;0.20;;;6.20;71.30;;;;;;5049950;28;20036;-60
2020/12/26 10:11:19;;;;;;;0.70;0.20;;;6.20;70.50;;;;;;5045806;28;20071;-52
2020/12/26 10:13:47;;;;;;;0.93;0.15;;;6.20;72.10;;;;;;5049094;28;20068;-52
2020/12/26 10:16:18;;;;;;;0.90;0.30;;;6.20;71.00;;;;;;5044496;28;20057;-54
2020/12/26 10:18:45;;;;;;;1.20;0.60;;;6.10;73.90;;;;;;5027580;28;20444;-49
2020/12/26 10:21:16;;;;;;;2.17;0.30;;;6.10;70.40;;;;;;5040270;28;20369;-56
2020/12/26 10:23:41;;;;;;;7.78;0.47;;;6.10;69.90;;;;;;5037210;28;20112;-51
2020/12/26 10:26:07;;;;;;;22.15;0.60;;;6.10;70.10;;;;;;5045267;28;20123;-57
2020/12/26 10:28:33;;;;;;;0.70;0.20;;;6.00;71.50;;;;;;5049376;28;20929;-52
2020/12/26 10:31:00;;;;;;;0.70;0.20;;;6.00;70.00;;;;;;5045021;28;20045;-52
2020/12/26 10:33:26;;;;;;;0.38;0.10;;;6.00;70.50;;;;;;5040231;28;20036;-51
2020/12/26 10:35:52;;;;;;;0.90;0.30;;;6.10;71.00;;;;;;5047813;28;20037;-53
2020/12/26 10:38:18;;;;;;;0.40;0.20;;;6.10;70.90;;;;;;5041552;28;20028;-58
2020/12/26 10:40:44;;;;;;;0.63;0.20;;;6.10;68.80;;;;;;5039736;28;20028;-56
2020/12/26 10:43:10;;;;;;;0.57;0.10;;;6.20;67.70;;;;;;5046472;28;20036;-51
2020/12/26 10:45:36;;;;;;;0.73;0.20;;;6.20;69.50;;;;;;5048332;28;20051;-54
2020/12/26 10:48:01;;;;;;;0.28;0.10;;;6.10;70.10;;;;;;5045267;28;20110;-53
2020/12/26 10:50:27;;;;;;;0.40;0.20;;;6.20;68.60;;;;;;5040980;28;20041;-53
2020/12/26 10:52:53;;;;;;;3.40;0.35;;;6.20;68.30;;;;;;5055227;28;20067;-54
2020/12/26 10:55:18;;;;;;;0.80;0.30;;;6.20;66.60;;;;;;5041717;28;20040;-57
2020/12/26 10:57:44;;;;;;;0.82;0.20;;;6.20;66.40;;;;;;5046295;28;20029;-54
2020/12/26 11:00:12;;;;;;;0.88;0.30;;;6.30;64.30;;;;;;5049181;28;20035;-51
2020/12/26 11:02:38;;;;;;;4.63;0.20;;;6.30;65.80;;;;;;5052535;28;20430;-53
2020/12/26 11:05:05;;;;;;;0.60;0.20;;;6.40;65.90;;;;;;5060889;28;20024;-51
2020/12/26 11:07:32;;;;;;;0.43;0.20;;;6.40;64.90;;;;;;5048172;28;20081;-57
2020/12/26 11:09:58;;;;;;;0.88;0.20;;;6.60;64.20;;;;;;5058509;28;20504;-51
2020/12/26 11:12:24;;;;;;;0.40;0.20;;;6.60;64.50;;;;;;5051536;28;20044;-49
2020/12/26 11:14:50;;;;;;;0.20;0.10;;;6.60;62.80;;;;;;5051456;28;20099;-57
2020/12/26 11:17:15;;;;;;;0.95;0.25;;;6.60;64.10;;;;;;5051294;28;20108;-51
2020/12/26 11:19:42;;;;;;;0.70;0.20;;;6.70;64.80;;;;;;5051156;28;20123;-59
2020/12/26 11:22:08;;;;;;;0.47;0.20;;;6.70;63.50;;;;;;5051117;28;20021;-53
2020/12/26 11:24:34;;;;;;;0.85;0.20;;;6.70;62.70;;;;;;5047189;28;20076;-52
2020/12/26 11:27:00;;;;;;;0.75;0.10;;;6.70;64.70;;;;;;5039318;28;20066;-55
2020/12/26 11:29:26;;;;;;;0.75;0.20;;;6.70;65.00;;;;;;5046822;28;20048;-52
2020/12/26 11:31:52;;;;;;;0.70;0.10;;;6.70;65.00;;;;;;5037477;28;20132;-53
2020/12/26 11:34:18;;;;;;;1.27;0.20;;;6.70;63.30;;;;;;5038662;28;20133;-56
2020/12/26 11:36:44;;;;;;;2.08;0.30;;;6.80;63.30;;;;;;5040871;28;20443;-54
2020/12/26 11:39:13;;;;;;;1.85;0.82;;;6.80;63.80;;;;;;5038391;28;20029;-58
2020/12/26 11:41:38;;;;;;;2.38;1.55;;;6.80;63.00;;;;;;5037743;28;20455;-53
2020/12/26 11:44:04;;;;;;;0.73;0.30;;;6.90;65.00;;;;;;5045215;28;20033;-57
2020/12/26 11:46:30;;;;;;;0.60;0.20;;;6.90;63.80;;;;;;5037959;28;20030;-55
2020/12/26 11:48:56;;;;;;;0.52;0.20;;;7.00;63.60;;;;;;5046347;28;20060;-52
2020/12/26 11:51:22;;;;;;;3.42;0.20;;;6.90;63.80;;;;;;5040708;28;20041;-52
2020/12/26 11:53:47;;;;;;;0.40;0.10;;;6.90;65.40;;;;;;5031023;28;20108;-54
2020/12/26 11:56:15;;;;;;;0.70;0.20;;;6.90;59.50;;;;;;5034749;28;20428;-56
2020/12/26 11:58:42;;;;;;;0.57;0.10;;;6.80;60.40;;;;;;5050487;28;20484;-56
2020/12/26 12:01:08;;;;;;;0.55;0.15;;;6.80;63.30;;;;;;5036524;28;20036;-53
2020/12/26 12:03:34;;;;;;;0.45;0.10;;;6.70;63.50;;;;;;5032282;28;20037;-55
2020/12/26 12:06:01;;;;;;;0.40;0.10;;;6.60;64.50;;;;;;5030163;28;20592;-55
2020/12/26 12:08:26;;;;;;;0.50;0.30;;;6.60;64.30;;;;;;5041875;28;20040;-56
2020/12/26 12:10:52;;;;;;;0.70;0.20;;;6.60;63.70;;;;;;5050313;28;20035;-55
2020/12/26 12:13:19;;;;;;;0.47;0.10;;;6.50;63.40;;;;;;5037993;28;21821;-54
2020/12/26 12:15:44;;;;;;;0.60;0.10;;;6.50;64.00;;;;;;5030350;28;20034;-52
2020/12/26 12:18:10;;;;;;;0.43;0.20;;;6.50;64.40;;;;;;5034914;28;20043;-56
2020/12/26 12:20:37;;;;;;;0.32;0.10;;;6.50;64.10;;;;;;5048096;28;20493;-55
2020/12/26 12:23:03;;;;;;;1.95;1.30;;;6.50;62.00;;;;;;5048931;28;20052;-57
2020/12/26 12:25:29;;;;;;;0.77;0.10;;;6.60;62.80;;;;;;5033700;28;20033;-59
2020/12/26 12:27:56;;;;;;;0.60;0.20;;;6.60;62.30;;;;;;5034074;28;20041;-58
2020/12/26 12:30:26;;;;;;;0.45;0.10;;;6.60;61.80;;;;;;5045330;28;20072;-56
2020/12/26 12:32:53;;;;;;;1.23;0.50;;;6.70;61.00;;;;;;5031357;28;20045;-55
2020/12/26 12:35:19;;;;;;;0.85;0.30;;;6.70;62.20;;;;;;5037952;28;20033;-56
2020/12/26 12:37:51;;;;;;;0.60;0.20;;;6.70;60.70;;;;;;5037694;28;20029;-53
2020/12/26 12:40:18;;;;;;;0.55;0.20;;;6.70;61.00;;;;;;5049541;28;20052;-52
2020/12/26 12:42:46;;;;;;;1.33;0.30;;;6.70;60.60;;;;;;5049609;28;20502;-55
2020/12/26 12:45:12;;;;;;;1.27;0.30;;;6.60;63.10;;;;;;5049591;28;20039;-51
2020/12/26 12:47:38;;;;;;;0.60;0.20;;;6.70;61.80;;;;;;5038946;28;20043;-56
2020/12/26 12:50:07;;;;;;;1.60;0.20;;;6.60;61.80;;;;;;5029682;28;20029;-56
2020/12/26 12:52:33;;;;;;;1.63;0.30;;;6.50;63.70;;;;;;5029593;28;20049;-52
2020/12/26 12:54:59;;;;;;;2.13;0.35;;;6.40;65.40;;;;;;5029829;28;20041;-52
2020/12/26 12:57:25;;;;;;;1.00;0.40;;;6.30;66.10;;;;;;5029693;28;20064;-55
2020/12/26 12:59:51;;;;;;;0.75;0.30;;;6.20;65.50;;;;;;5033932;28;20437;-55
2020/12/26 13:02:17;;;;;;;1.10;0.30;;;6.20;67.10;;;;;;5048887;28;20063;-54